createdAt,value
2022-12-03T00:00:27.146Z,31.33
2022-12-03T00:02:56.735Z,33.00
2022-12-03T00:05:26.350Z,32.33
2022-12-03T00:07:55.923Z,32.33
2022-12-03T00:10:25.625Z,31.33
2022-12-03T00:12:55.101Z,32.00
2022-12-03T00:15:24.626Z,30.00
2022-12-03T00:17:53.328Z,30.00
2022-12-03T00:20:24.928Z,31.33
2022-12-03T00:22:54.421Z,30.00
2022-12-03T00:25:23.913Z,28.67
2022-12-03T00:27:52.617Z,30.00
2022-12-03T00:30:22.127Z,30.00
2022-12-03T00:32:51.572Z,30.00
2022-12-03T00:35:21.035Z,34.00
2022-12-03T00:37:50.558Z,30.00
2022-12-03T00:40:20.081Z,29.00
2022-12-03T00:42:49.598Z,31.00
2022-12-03T00:45:19.043Z,29.33
2022-12-03T00:47:48.522Z,30.00
2022-12-03T00:50:18.162Z,29.33
2022-12-03T00:52:47.895Z,30.67
2022-12-03T00:55:18.262Z,30.00
2022-12-03T00:57:47.785Z,29.00
2022-12-03T01:00:17.856Z,27.33
2022-12-03T01:02:47.335Z,30.00
2022-12-03T01:05:17.021Z,29.33
2022-12-03T01:07:47.671Z,32.00
2022-12-03T01:10:17.761Z,29.67
2022-12-03T01:12:47.261Z,30.67
2022-12-03T01:15:17.074Z,32.33
2022-12-03T01:17:46.566Z,31.00
2022-12-03T01:20:15.340Z,28.00
2022-12-03T01:22:44.812Z,29.00
2022-12-03T01:25:14.499Z,28.33
2022-12-03T01:27:44.056Z,29.67
2022-12-03T01:30:14.829Z,29.67
2022-12-03T01:32:44.298Z,32.33
2022-12-03T01:35:13.772Z,30.33
2022-12-03T01:37:43.303Z,32.00
2022-12-03T01:40:16.785Z,33.00
2022-12-03T01:42:46.374Z,33.33
2022-12-03T01:45:24.268Z,31.00
2022-12-03T01:47:53.813Z,30.00
2022-12-03T01:50:33.967Z,31.67
2022-12-03T01:53:05.191Z,31.67
2022-12-03T01:55:34.765Z,30.33
2022-12-03T01:58:05.047Z,25.33
2022-12-03T02:00:34.651Z,29.00
2022-12-03T02:03:17.584Z,32.33
2022-12-03T02:05:47.272Z,33.00
2022-12-03T02:08:40.231Z,30.00
2022-12-03T02:11:33.055Z,30.67
2022-12-03T02:14:14.585Z,29.33
2022-12-03T02:16:44.960Z,31.00
2022-12-03T02:19:32.147Z,30.00
2022-12-03T02:22:28.246Z,29.00
2022-12-03T02:25:32.088Z,29.00
2022-12-03T02:28:03.717Z,30.67
2022-12-03T02:30:34.564Z,29.00
2022-12-03T02:33:04.401Z,30.00
2022-12-03T02:35:36.819Z,30.00
2022-12-03T02:38:23.013Z,30.00
2022-12-03T02:40:58.505Z,30.67
2022-12-03T02:43:28.268Z,33.00
2022-12-03T02:46:02.027Z,30.00
2022-12-03T02:48:37.580Z,32.33
2022-12-03T02:51:11.082Z,30.33
2022-12-03T02:53:46.265Z,31.67
2022-12-03T02:56:26.315Z,31.00
2022-12-03T02:59:02.320Z,31.67
2022-12-03T03:01:32.186Z,30.33
2022-12-03T03:04:03.422Z,31.00
2022-12-03T03:06:32.932Z,28.33
2022-12-03T03:09:03.258Z,27.00
2022-12-03T03:11:33.035Z,32.00
2022-12-03T03:14:04.224Z,30.00
2022-12-03T03:16:35.038Z,31.33
2022-12-03T03:19:04.688Z,30.00
2022-12-03T03:21:34.888Z,30.00
2022-12-03T03:24:06.255Z,31.00
2022-12-03T03:26:35.686Z,30.00
2022-12-03T03:29:05.208Z,28.33
2022-12-03T03:31:34.792Z,31.00
2022-12-03T03:34:04.444Z,30.00
2022-12-03T03:36:34.620Z,31.00
2022-12-03T03:39:06.860Z,32.33
2022-12-03T03:41:36.519Z,27.00
2022-12-03T03:44:09.191Z,29.00
2022-12-03T03:46:39.188Z,29.00
2022-12-03T03:49:09.741Z,29.67
2022-12-03T03:51:39.940Z,28.00
2022-12-03T03:54:09.738Z,29.33
2022-12-03T03:56:39.537Z,30.00
2022-12-03T03:59:09.269Z,29.00
2022-12-03T04:01:39.141Z,31.67
2022-12-03T04:04:24.731Z,31.67
2022-12-03T04:06:54.315Z,31.67
2022-12-03T04:09:23.785Z,27.00
2022-12-03T04:12:11.991Z,30.00
2022-12-03T04:14:40.669Z,32.50
2022-12-03T04:17:10.139Z,28.33
2022-12-03T04:19:39.568Z,29.33
2022-12-03T04:22:27.651Z,32.33
2022-12-03T04:25:16.492Z,33.00
2022-12-03T04:28:04.761Z,32.00
2022-12-03T04:30:34.269Z,31.67
2022-12-03T04:33:22.539Z,32.00
2022-12-03T04:35:52.370Z,31.33
2022-12-03T04:38:21.924Z,33.33
2022-12-03T04:41:06.337Z,32.33
2022-12-03T04:43:56.261Z,31.00
2022-12-03T04:46:25.754Z,32.33
2022-12-03T04:48:55.241Z,30.00
2022-12-03T04:51:23.921Z,31.00
2022-12-03T04:53:53.407Z,23.00
2022-12-03T04:56:22.882Z,33.00
2022-12-03T04:58:52.418Z,34.00
2022-12-03T05:01:22.135Z,30.00
2022-12-03T05:03:51.740Z,35.00
2022-12-03T05:06:21.486Z,34.00
2022-12-03T05:08:50.989Z,32.33
2022-12-03T05:11:20.500Z,33.00
2022-12-03T05:13:51.348Z,34.00
2022-12-03T05:16:20.919Z,34.33
2022-12-03T05:18:50.499Z,33.67
2022-12-03T05:21:20.041Z,34.00
2022-12-03T05:23:50.257Z,35.00
2022-12-03T05:26:19.720Z,32.33
2022-12-03T05:28:49.469Z,30.00
2022-12-03T05:31:18.995Z,31.67
2022-12-03T05:33:48.568Z,33.33
2022-12-03T05:36:18.351Z,32.33
2022-12-03T05:38:47.811Z,34.00
2022-12-03T05:41:35.989Z,32.33
2022-12-03T05:44:03.737Z,27.00
2022-12-03T05:46:33.734Z,33.00
2022-12-03T05:49:02.495Z,32.00
2022-12-03T05:51:32.002Z,32.67
2022-12-03T05:54:01.505Z,31.67
2022-12-03T05:56:30.935Z,32.33
2022-12-03T05:59:00.416Z,32.67
2022-12-03T06:01:29.929Z,30.00
2022-12-03T06:03:59.462Z,29.33
2022-12-03T06:06:28.984Z,31.00
2022-12-03T06:08:58.318Z,30.00
2022-12-03T06:11:29.961Z,34.67
2022-12-03T06:13:59.590Z,33.33
2022-12-03T06:16:29.289Z,33.00
2022-12-03T06:18:58.866Z,35.00
2022-12-03T06:21:28.299Z,34.00
2022-12-03T06:23:57.755Z,30.00
2022-12-03T06:26:27.220Z,30.00
2022-12-03T06:28:56.821Z,31.67
2022-12-03T06:31:26.305Z,34.00
2022-12-03T06:33:55.815Z,32.33
2022-12-03T06:36:27.786Z,29.00
2022-12-03T06:38:57.236Z,33.00
2022-12-03T06:41:26.727Z,34.67
2022-12-03T06:43:56.176Z,30.67
2022-12-03T06:46:25.687Z,32.00
2022-12-03T06:48:55.182Z,33.67
2022-12-03T06:51:24.683Z,25.00
2022-12-03T06:53:54.166Z,34.33
2022-12-03T06:56:23.868Z,30.00
2022-12-03T06:58:53.836Z,29.33
2022-12-03T07:01:23.430Z,35.67
2022-12-03T07:03:53.435Z,34.67
2022-12-03T07:06:23.069Z,49.33
2022-12-03T07:08:53.576Z,70.50
2022-12-03T07:11:32.175Z,48.00
2022-12-03T07:14:05.776Z,39.00
2022-12-03T07:16:35.801Z,67.50
2022-12-03T07:19:06.963Z,35.00
2022-12-03T07:21:36.610Z,46.00
2022-12-03T07:24:06.801Z,32.67
2022-12-03T07:26:36.556Z,35.67
2022-12-03T07:29:06.160Z,49.33
2022-12-03T07:31:35.875Z,47.33
2022-12-03T07:34:05.461Z,38.33
2022-12-03T07:36:35.040Z,31.33
2022-12-03T07:39:05.043Z,36.00
2022-12-03T07:41:34.476Z,33.00
2022-12-03T07:44:06.631Z,34.00
2022-12-03T07:46:39.601Z,31.00
2022-12-03T07:49:09.423Z,41.00
2022-12-03T07:51:39.295Z,35.67
2022-12-03T07:54:08.894Z,43.67
2022-12-03T07:56:37.606Z,25.50
2022-12-03T07:59:07.127Z,34.33
2022-12-03T08:01:36.746Z,36.00
2022-12-03T08:04:06.323Z,30.67
2022-12-03T08:06:34.224Z,93.50
2022-12-03T08:09:03.791Z,64.00
2022-12-03T08:11:34.265Z,55.33
2022-12-03T08:14:20.840Z,58.75
2022-12-03T08:16:50.557Z,42.00
2022-12-03T08:19:20.113Z,32.33
2022-12-03T08:21:49.668Z,37.00
2022-12-03T08:24:21.596Z,42.00
2022-12-03T08:26:51.156Z,47.50
2022-12-03T08:29:21.010Z,42.33
2022-12-03T08:31:55.359Z,36.33
2022-12-03T08:34:31.743Z,27.00
2022-12-03T08:37:18.784Z,38.67
2022-12-03T08:39:51.233Z,32.00
2022-12-03T08:42:42.611Z,35.00
2022-12-03T08:45:32.858Z,29.33
2022-12-03T08:48:35.099Z,34.00
2022-12-03T08:51:26.814Z,34.00
2022-12-03T08:54:11.614Z,34.00
2022-12-03T08:56:42.636Z,32.00
2022-12-03T08:59:45.581Z,34.00
2022-12-03T09:02:34.204Z,32.33
2022-12-03T09:05:23.055Z,35.00
2022-12-03T09:07:52.889Z,27.50
2022-12-03T09:10:22.387Z,32.00
2022-12-03T09:12:51.909Z,36.00
2022-12-03T09:15:21.389Z,34.00
2022-12-03T09:17:50.968Z,32.33
2022-12-03T09:20:20.712Z,34.00
2022-12-03T09:22:50.241Z,34.00
2022-12-03T09:25:19.735Z,34.00
2022-12-03T09:27:49.891Z,34.33
2022-12-03T09:30:19.538Z,41.00
2022-12-03T09:32:49.070Z,35.33
2022-12-03T09:35:18.822Z,31.00
2022-12-03T09:37:46.743Z,51.50
2022-12-03T09:40:16.306Z,35.00
2022-12-03T09:42:46.314Z,35.00
2022-12-03T09:45:17.401Z,40.33
2022-12-03T09:47:49.619Z,34.00
2022-12-03T09:50:26.981Z,29.00
2022-12-03T09:53:01.641Z,31.67
2022-12-03T09:55:31.896Z,34.00
2022-12-03T09:58:01.450Z,34.00
2022-12-03T10:00:31.684Z,34.00
2022-12-03T10:03:05.599Z,34.00
2022-12-03T10:05:35.767Z,34.67
2022-12-03T10:08:13.741Z,34.00
2022-12-03T10:10:43.575Z,33.00
2022-12-03T10:13:32.596Z,35.00
2022-12-03T10:16:02.522Z,34.00
2022-12-03T10:18:39.975Z,35.00
2022-12-03T10:21:38.865Z,34.00
2022-12-03T10:24:31.621Z,39.33
2022-12-03T10:27:25.371Z,31.33
2022-12-03T10:30:04.918Z,26.00
2022-12-03T10:32:50.998Z,32.00
2022-12-03T10:35:25.638Z,31.00
2022-12-03T10:38:24.609Z,30.67
2022-12-03T10:41:27.844Z,33.00
2022-12-03T10:44:26.131Z,33.00
2022-12-03T10:47:12.939Z,32.00
2022-12-03T10:49:43.188Z,32.00
2022-12-03T10:52:25.908Z,26.00
2022-12-03T10:54:56.208Z,31.00
2022-12-03T10:57:26.100Z,33.33
2022-12-03T10:59:55.540Z,33.33
2022-12-03T11:02:25.911Z,29.00
2022-12-03T11:04:56.192Z,30.00
2022-12-03T11:07:26.409Z,31.33
2022-12-03T11:09:55.969Z,32.00
2022-12-03T11:12:29.454Z,27.33
2022-12-03T11:15:05.243Z,19.67
2022-12-03T11:17:51.348Z,32.00
2022-12-03T11:20:22.785Z,31.33
2022-12-03T11:22:59.063Z,32.00
2022-12-03T11:25:27.638Z,24.00
2022-12-03T11:28:13.983Z,24.00
2022-12-03T11:30:49.369Z,30.33
2022-12-03T11:33:41.485Z,31.00
2022-12-03T11:36:14.230Z,32.33
2022-12-03T11:38:55.087Z,29.33
2022-12-03T11:41:35.895Z,32.00
2022-12-03T11:44:33.151Z,32.00
2022-12-03T11:47:14.707Z,33.00
2022-12-03T11:49:48.008Z,30.33
2022-12-03T11:52:32.316Z,30.67
2022-12-03T11:55:19.416Z,28.67
2022-12-03T11:57:48.176Z,28.50
2022-12-03T12:00:23.211Z,24.00
2022-12-03T12:02:57.021Z,26.00
2022-12-03T12:05:33.571Z,25.00
2022-12-03T12:08:04.164Z,11.33
2022-12-03T12:10:49.339Z,25.00
2022-12-03T12:13:37.537Z,27.00
2022-12-03T12:16:08.623Z,28.00
2022-12-03T12:18:55.014Z,23.67
2022-12-03T12:21:48.283Z,28.33
2022-12-03T12:24:48.406Z,30.33
2022-12-03T12:27:51.151Z,23.33
2022-12-03T12:30:23.826Z,25.67
2022-12-03T12:33:19.918Z,27.00
2022-12-03T12:35:49.714Z,26.33
2022-12-03T12:38:21.694Z,26.00
2022-12-03T12:40:51.519Z,28.00
2022-12-03T12:43:29.601Z,29.33
2022-12-03T12:46:45.949Z,27.00
2022-12-03T12:49:14.678Z,24.00
2022-12-03T12:51:49.595Z,30.67
2022-12-03T12:54:19.541Z,29.33
2022-12-03T12:56:51.298Z,26.33
2022-12-03T12:59:23.294Z,29.00
2022-12-03T13:01:52.108Z,24.00
2022-12-03T13:04:24.470Z,34.33
2022-12-03T13:06:54.675Z,31.00
2022-12-03T13:09:28.001Z,37.33
2022-12-03T13:12:07.534Z,36.00
2022-12-03T13:14:37.886Z,25.00
2022-12-03T13:17:24.639Z,22.50
2022-12-03T13:20:07.868Z,26.00
2022-12-03T13:22:40.668Z,30.67
2022-12-03T13:28:28.555Z,30.67
2022-12-03T13:31:33.184Z,28.33
2022-12-03T13:34:02.823Z,28.33
2022-12-03T13:36:44.035Z,59.00
2022-12-03T13:39:23.659Z,42.00
2022-12-03T13:42:16.694Z,34.67
2022-12-03T13:44:49.930Z,44.33
2022-12-03T13:47:22.833Z,75.00
2022-12-03T13:49:59.049Z,106.25
2022-12-03T13:52:33.614Z,49.00
2022-12-03T13:55:06.915Z,35.33
2022-12-03T13:57:36.362Z,31.33
2022-12-03T14:00:07.338Z,35.67
2022-12-03T14:02:36.876Z,37.00
2022-12-03T14:05:07.264Z,38.67
2022-12-03T14:07:38.716Z,31.00
2022-12-03T14:10:12.625Z,37.00
2022-12-03T14:12:42.217Z,34.00
2022-12-03T14:15:12.081Z,38.00
2022-12-03T14:17:41.858Z,34.00
2022-12-03T14:20:12.288Z,37.00
2022-12-03T14:22:41.825Z,36.33
2022-12-03T14:25:11.352Z,33.50
2022-12-03T14:27:40.832Z,34.00
2022-12-03T14:30:11.411Z,38.33
2022-12-03T14:32:40.969Z,44.00
2022-12-03T14:35:10.731Z,40.67
2022-12-03T14:37:40.225Z,35.00
2022-12-03T14:40:09.231Z,64.50
2022-12-03T14:42:38.788Z,40.00
2022-12-03T14:45:09.423Z,42.00
2022-12-03T14:47:39.049Z,42.33
2022-12-03T14:50:14.319Z,90.67
2022-12-03T14:52:43.484Z,48.50
2022-12-03T14:55:11.432Z,55.00
2022-12-03T14:57:40.927Z,40.00
2022-12-03T15:00:12.701Z,53.75
2022-12-03T15:02:42.339Z,44.50
2022-12-03T15:05:11.996Z,45.00
2022-12-03T15:07:42.952Z,55.00
2022-12-03T15:10:11.314Z,58.50
2022-12-03T15:12:42.688Z,51.67
2022-12-03T15:15:16.918Z,67.67
2022-12-03T15:17:45.892Z,74.00
2022-12-03T15:20:15.735Z,47.00
2022-12-03T15:22:46.136Z,62.00
2022-12-03T15:25:14.067Z,70.00
2022-12-03T15:27:44.479Z,55.25
2022-12-03T15:30:16.288Z,72.00
2022-12-03T15:32:45.892Z,42.00
2022-12-03T15:35:19.998Z,48.25
2022-12-03T15:37:49.700Z,42.00
2022-12-03T15:40:19.312Z,46.00
2022-12-03T15:42:48.979Z,47.67
2022-12-03T15:45:18.992Z,44.50
2022-12-03T15:47:46.841Z,58.00
2022-12-03T15:50:16.657Z,37.00
2022-12-03T15:52:46.241Z,48.67
2022-12-03T15:55:16.501Z,52.00
2022-12-03T15:57:47.066Z,52.25
2022-12-03T16:00:18.472Z,47.67
2022-12-03T16:02:52.665Z,54.33
2022-12-03T16:05:22.829Z,42.33
2022-12-03T16:07:52.419Z,43.00
2022-12-03T16:10:22.155Z,51.00
2022-12-03T16:12:51.755Z,43.67
2022-12-03T16:15:26.749Z,40.33
2022-12-03T16:17:56.919Z,45.33
2022-12-03T16:20:26.500Z,48.00
2022-12-03T16:22:56.175Z,42.33
2022-12-03T16:25:25.727Z,42.00
2022-12-03T16:27:56.591Z,45.00
2022-12-03T16:30:26.148Z,42.00
2022-12-03T16:32:56.594Z,46.50
2022-12-03T16:35:27.109Z,48.00
2022-12-03T16:37:56.723Z,46.67
2022-12-03T16:40:26.560Z,50.00
2022-12-03T16:42:56.232Z,51.33
2022-12-03T16:46:00.922Z,49.00
2022-12-03T16:48:30.885Z,47.00
2022-12-03T16:51:00.454Z,46.67
2022-12-03T16:53:30.084Z,45.67
2022-12-03T16:56:00.663Z,56.00
2022-12-03T16:58:31.168Z,57.25
2022-12-03T17:01:01.953Z,55.25
2022-12-03T17:03:34.276Z,49.50
2022-12-03T17:06:05.215Z,40.67
2022-12-03T17:08:34.806Z,41.33
2022-12-03T17:11:04.801Z,42.00
2022-12-03T17:13:34.351Z,42.33
2022-12-03T17:16:05.199Z,43.67
2022-12-03T17:18:34.838Z,43.00
2022-12-03T17:21:04.635Z,44.33
2022-12-03T17:23:41.811Z,47.00
2022-12-03T17:26:11.469Z,47.67
2022-12-03T17:28:41.056Z,49.67
2022-12-03T17:31:12.101Z,51.00
2022-12-03T17:33:40.237Z,70.00
2022-12-03T17:36:11.065Z,61.25
2022-12-03T17:38:39.559Z,63.00
2022-12-03T17:41:07.782Z,57.00
2022-12-03T17:43:38.233Z,77.25
2022-12-03T17:46:08.919Z,53.50
2022-12-03T17:48:40.590Z,50.67
2022-12-03T17:51:10.721Z,47.00
2022-12-03T17:53:40.330Z,56.33
2022-12-03T17:56:09.949Z,50.00
2022-12-03T17:58:39.600Z,50.67
2022-12-03T18:01:10.574Z,45.33
2022-12-03T18:03:40.562Z,43.33
2022-12-03T18:06:10.166Z,52.33
2022-12-03T18:08:39.816Z,55.67
2022-12-03T18:11:09.456Z,57.67
2022-12-03T18:13:39.088Z,56.00
2022-12-03T18:16:07.303Z,58.00
2022-12-03T18:18:36.957Z,63.67
2022-12-03T18:21:06.963Z,63.00
2022-12-03T18:23:38.543Z,62.00
2022-12-03T18:26:07.200Z,69.50
2022-12-03T18:28:35.109Z,66.50
2022-12-03T18:31:15.548Z,71.75
2022-12-03T18:33:43.567Z,74.00
2022-12-03T18:36:22.663Z,73.25
2022-12-03T18:38:56.200Z,69.00
2022-12-03T18:41:27.124Z,72.50
2022-12-03T18:43:57.620Z,67.00
2022-12-03T18:49:19.313Z,76.80
2022-12-03T18:51:48.329Z,74.00
2022-12-03T18:54:19.102Z,75.25
2022-12-03T18:56:49.636Z,129.25
2022-12-03T18:59:19.243Z,111.00
2022-12-03T19:01:48.944Z,102.25
2022-12-03T19:04:18.593Z,85.25
2022-12-03T19:06:49.156Z,79.25
2022-12-03T19:09:17.291Z,84.50
2022-12-03T19:11:45.164Z,79.50
2022-12-03T19:14:14.745Z,82.75
2022-12-03T19:16:44.795Z,106.00
2022-12-03T19:19:12.731Z,117.50
2022-12-03T19:21:42.409Z,97.00
2022-12-03T19:24:28.295Z,101.00
2022-12-03T19:26:58.039Z,108.67
2022-12-03T19:29:27.683Z,74.75
2022-12-03T19:31:55.553Z,66.00
2022-12-03T19:34:25.434Z,89.67
2022-12-03T19:36:55.941Z,63.00
2022-12-03T19:39:24.298Z,70.50
2022-12-03T19:41:54.008Z,101.00
2022-12-03T19:44:23.665Z,93.50
2022-12-03T19:46:53.346Z,90.25
2022-12-03T19:49:23.702Z,83.75
2022-12-03T19:51:53.506Z,89.75
2022-12-03T19:54:24.143Z,49.00
2022-12-03T19:56:54.603Z,58.25
2022-12-03T19:59:24.228Z,54.00
2022-12-03T20:01:53.980Z,54.33
2022-12-03T20:04:23.699Z,60.00
2022-12-03T20:06:54.140Z,58.25
2022-12-03T20:09:22.719Z,67.00
2022-12-03T20:11:53.952Z,73.50
2022-12-03T20:14:24.487Z,68.75
2022-12-03T20:16:55.082Z,71.50
2022-12-03T20:19:26.877Z,77.80
2022-12-03T20:22:02.336Z,62.50
2022-12-03T20:24:32.447Z,78.00
2022-12-03T20:27:03.076Z,66.00
2022-12-03T20:29:32.800Z,55.67
2022-12-03T20:32:04.122Z,57.00
2022-12-03T20:34:36.032Z,51.67
2022-12-03T20:37:07.227Z,52.67
2022-12-03T20:39:36.859Z,48.33
2022-12-03T20:42:06.537Z,55.33
2022-12-03T20:44:38.420Z,50.33
2022-12-03T20:47:08.014Z,48.00
2022-12-03T20:49:41.692Z,47.00
2022-12-03T20:52:12.381Z,45.33
2022-12-03T20:54:42.063Z,45.00
2022-12-03T20:57:11.773Z,43.00
2022-12-03T20:59:42.051Z,55.00
2022-12-03T21:02:12.829Z,67.25
2022-12-03T21:04:43.381Z,59.75
2022-12-03T21:07:13.034Z,50.67
2022-12-03T21:09:43.445Z,51.50
2022-12-03T21:12:13.969Z,63.25
2022-12-03T21:14:41.811Z,65.00
2022-12-03T21:17:12.387Z,65.75
2022-12-03T21:19:40.199Z,66.00
2022-12-03T21:22:08.253Z,73.50
2022-12-03T21:24:37.886Z,88.75
2022-12-03T21:27:05.684Z,89.00
2022-12-03T21:29:33.483Z,76.00
2022-12-03T21:32:03.078Z,43.33
2022-12-03T21:34:36.107Z,43.00
2022-12-03T21:37:06.052Z,43.33
2022-12-03T21:39:35.864Z,45.00
2022-12-03T21:42:35.505Z,43.00
2022-12-03T21:44:55.166Z,48.00
2022-12-03T21:47:24.924Z,46.33
2022-12-03T21:49:54.850Z,49.00
2022-12-03T21:52:24.754Z,49.67
2022-12-03T21:54:54.999Z,44.67
2022-12-03T21:57:24.552Z,48.33
2022-12-03T21:59:56.079Z,47.00
2022-12-03T22:02:28.188Z,45.67
2022-12-03T22:04:57.842Z,51.33
2022-12-03T22:07:27.535Z,52.00
2022-12-03T22:09:57.371Z,54.00
2022-12-03T22:12:27.760Z,48.33
2022-12-03T22:14:57.493Z,51.67
2022-12-03T22:17:28.041Z,48.67
2022-12-03T22:19:57.690Z,50.00
2022-12-03T22:22:27.298Z,44.67
2022-12-03T22:24:57.675Z,43.00
2022-12-03T22:27:27.240Z,44.67
2022-12-03T22:29:57.112Z,53.00
2022-12-03T22:32:26.800Z,42.00
2022-12-03T22:34:56.285Z,40.67
2022-12-03T22:37:25.770Z,41.33
2022-12-03T22:39:55.334Z,40.00
2022-12-03T22:42:25.132Z,41.00
2022-12-03T22:44:54.689Z,42.00
2022-12-03T22:47:24.314Z,44.00
2022-12-03T22:49:54.161Z,42.33
2022-12-03T22:52:23.899Z,45.00
2022-12-03T22:54:53.521Z,43.67
2022-12-03T22:57:23.136Z,42.67
2022-12-03T22:59:52.943Z,44.00
2022-12-03T23:02:22.851Z,47.00
2022-12-03T23:04:56.110Z,46.00
2022-12-03T23:07:25.795Z,47.33
2022-12-03T23:09:55.757Z,44.00
2022-12-03T23:12:25.690Z,43.00
2022-12-03T23:14:55.420Z,44.00
2022-12-03T23:17:25.015Z,45.67
2022-12-03T23:19:54.939Z,45.00
2022-12-03T23:22:24.693Z,45.00
2022-12-03T23:24:54.316Z,47.00
2022-12-03T23:27:24.698Z,57.67
2022-12-03T23:29:54.588Z,54.67
2022-12-03T23:32:24.465Z,52.67
2022-12-03T23:34:54.606Z,53.33
2022-12-03T23:37:24.226Z,49.33
2022-12-03T23:39:54.086Z,49.00
2022-12-03T23:42:24.507Z,44.00
2022-12-03T23:44:54.122Z,49.67
2022-12-03T23:47:24.287Z,48.33
2022-12-03T23:49:54.021Z,43.00
2022-12-03T23:52:24.520Z,45.33
2022-12-03T23:54:54.126Z,45.00
2022-12-03T23:57:23.709Z,45.33
2022-12-03T23:59:53.617Z,45.00
